Time;durP1;ratioP1;P1;durP2;ratioP2;P2;SDS_P1;SDS_P2;PMS_P1;PMS_P2;Temp;Humidity;BMP_temperature;BMP_pressure;BME280_temperature;BME280_humidity;BME280_pressure;Samples;Min_cycle;Max_cycle;Signal;HPM_P1;HPM_P2
2022/01/15 00:00:38;;;;;;;76.53;41.55;;;-3.00;99.90;;;;;;4979458;28;89167;-76
2022/01/15 00:03:05;;;;;;;83.20;43.28;;;-3.10;99.90;;;;;;4979277;28;89529;-76
2022/01/15 00:05:32;;;;;;;79.78;41.97;;;-3.20;99.90;;;;;;4979277;28;89861;-76
2022/01/15 00:07:59;;;;;;;74.57;37.63;;;-3.20;99.90;;;;;;4979435;28;90718;-76
2022/01/15 00:10:27;;;;;;;70.80;35.72;;;-3.10;99.90;;;;;;4979377;28;89284;-76
2022/01/15 00:12:57;;;;;;;70.68;34.63;;;-3.10;99.90;;;;;;4978592;28;90448;-76
2022/01/15 00:15:31;;;;;;;75.65;35.15;;;-3.10;99.90;;;;;;4977412;28;93200;-76
2022/01/15 00:18:00;;;;;;;76.55;36.50;;;-3.20;99.90;;;;;;4978898;28;89603;-76
2022/01/15 00:20:26;;;;;;;74.43;36.00;;;-3.20;99.90;;;;;;4977742;28;91777;-76
2022/01/15 00:22:53;;;;;;;67.63;34.42;;;-3.20;99.90;;;;;;4979130;28;89253;-77
2022/01/15 00:25:21;;;;;;;70.60;34.97;;;-3.30;99.90;;;;;;4981582;28;89356;-77
2022/01/15 00:27:47;;;;;;;78.50;37.00;;;-3.30;99.90;;;;;;4981358;28;90250;-77
2022/01/15 05:01:38;;;;;;;51.65;27.00;;;-1.60;99.90;;;;;;5433448;22;96346;-78
2022/01/15 05:04:04;;;;;;;49.33;26.13;;;-1.50;99.90;;;;;;5003789;28;95331;-77
2022/01/15 05:06:29;;;;;;;55.00;28.35;;;-1.50;99.90;;;;;;5002766;28;97943;-78
2022/01/15 05:09:04;;;;;;;51.35;27.38;;;-1.40;99.90;;;;;;5005128;28;94488;-78
2022/01/15 05:11:44;;;;;;;52.55;27.35;;;-1.30;99.90;;;;;;5003909;28;94466;-77
2022/01/15 05:14:11;;;;;;;51.67;27.92;;;-1.30;99.90;;;;;;5003359;28;97087;-78
2022/01/15 05:16:37;;;;;;;45.00;25.23;;;-1.30;99.90;;;;;;5002617;28;97474;-78
2022/01/15 05:19:03;;;;;;;50.20;26.40;;;-1.20;99.90;;;;;;5003265;28;94451;-78
2022/01/15 05:21:29;;;;;;;55.00;27.55;;;-1.10;99.90;;;;;;5003819;28;93740;-78
2022/01/15 05:23:54;;;;;;;47.35;26.30;;;-1.10;99.90;;;;;;5002986;28;96557;-78
2022/01/15 05:26:20;;;;;;;52.03;26.58;;;-1.10;99.90;;;;;;5005399;28;95066;-78
2022/01/15 05:28:45;;;;;;;47.97;26.20;;;-1.10;99.90;;;;;;5001574;28;95547;-78
2022/01/15 05:31:12;;;;;;;48.53;26.90;;;-1.10;99.90;;;;;;5001826;28;94433;-77
2022/01/15 05:33:37;;;;;;;45.90;26.15;;;-1.00;99.90;;;;;;5003128;28;98053;-78
2022/01/15 05:36:03;;;;;;;50.30;26.60;;;-1.00;99.90;;;;;;5004450;28;95978;-77
2022/01/15 05:38:29;;;;;;;53.92;27.23;;;-1.00;99.90;;;;;;5002147;28;94982;-78
2022/01/15 05:40:54;;;;;;;54.97;28.98;;;-1.00;99.90;;;;;;5013246;28;94404;-77
2022/01/15 05:43:20;;;;;;;50.85;27.23;;;-1.00;99.90;;;;;;5020231;28;96604;-77
2022/01/15 05:45:45;;;;;;;52.58;26.33;;;-1.00;99.90;;;;;;5005003;28;96682;-78
2022/01/15 05:48:11;;;;;;;50.97;27.13;;;-1.00;99.90;;;;;;4999640;28;94413;-77
2022/01/15 05:50:37;;;;;;;51.22;26.58;;;-0.90;99.90;;;;;;5000316;28;94618;-77
2022/01/15 05:53:02;;;;;;;49.17;25.30;;;-0.90;99.90;;;;;;5000680;28;95425;-78
2022/01/15 05:55:28;;;;;;;52.53;26.10;;;-0.90;99.90;;;;;;5000097;28;98281;-77
2022/01/15 05:57:54;;;;;;;52.00;25.83;;;-0.90;99.90;;;;;;5000429;28;94423;-77
2022/01/15 06:00:19;;;;;;;50.05;26.05;;;-0.90;99.90;;;;;;5000417;28;94420;-78
2022/01/15 06:02:45;;;;;;;50.63;25.95;;;-0.80;99.90;;;;;;4999607;28;97113;-77
2022/01/15 06:05:11;;;;;;;51.20;26.45;;;-0.80;99.90;;;;;;4999379;28;97434;-77
2022/01/15 06:07:36;;;;;;;51.45;25.35;;;-0.70;99.90;;;;;;4999048;28;94769;-77
2022/01/15 06:10:03;;;;;;;43.92;23.50;;;-0.70;99.90;;;;;;4999842;28;93879;-78
2022/01/15 06:12:31;;;;;;;50.35;24.02;;;-0.70;99.90;;;;;;4998639;28;97275;-77
2022/01/15 06:14:57;;;;;;;49.63;22.50;;;-0.60;99.90;;;;;;4999638;28;96928;-78
2022/01/15 06:17:23;;;;;;;49.92;23.48;;;-0.60;99.90;;;;;;5000574;28;95314;-78
2022/01/15 06:19:49;;;;;;;58.03;24.40;;;-0.60;99.90;;;;;;4999025;28;94622;-78
2022/01/15 06:22:14;;;;;;;48.90;22.55;;;-0.50;99.90;;;;;;4998511;28;96217;-78
2022/01/15 06:24:40;;;;;;;47.25;22.05;;;-0.60;99.90;;;;;;5000312;28;94989;-77
2022/01/15 06:27:08;;;;;;;47.28;23.13;;;-0.50;99.90;;;;;;4998841;28;94599;-78
2022/01/15 06:29:34;;;;;;;49.85;23.27;;;-0.50;99.90;;;;;;5000708;28;94810;-78
2022/01/15 06:32:00;;;;;;;49.63;23.45;;;-0.40;99.90;;;;;;5000908;28;95279;-78
2022/01/15 06:34:25;;;;;;;50.72;24.00;;;-0.40;99.90;;;;;;5001334;28;97661;-79
2022/01/15 06:36:51;;;;;;;50.75;23.70;;;-0.40;99.90;;;;;;5001019;28;94347;-77
2022/01/15 06:39:16;;;;;;;50.40;23.88;;;-0.40;99.90;;;;;;5000855;28;94454;-78
2022/01/15 06:41:42;;;;;;;56.03;23.52;;;-0.40;99.90;;;;;;5000202;28;96246;-78
2022/01/15 06:44:07;;;;;;;57.15;26.30;;;-0.40;99.90;;;;;;5000576;28;95164;-77
2022/01/15 06:46:33;;;;;;;54.88;24.88;;;-0.30;99.90;;;;;;5000315;28;94389;-78
2022/01/15 06:48:58;;;;;;;53.65;25.55;;;-0.30;99.90;;;;;;5002381;28;94789;-79
2022/01/15 06:51:25;;;;;;;53.53;25.05;;;-0.30;99.90;;;;;;4999850;28;97972;-78
2022/01/15 06:53:51;;;;;;;50.80;24.92;;;-0.30;99.90;;;;;;5001788;28;94748;-78
2022/01/15 06:56:16;;;;;;;60.15;26.40;;;-0.20;99.90;;;;;;5000626;28;94455;-78
2022/01/15 06:58:42;;;;;;;58.65;27.20;;;-0.20;99.90;;;;;;5002655;28;93692;-78
2022/01/15 07:01:08;;;;;;;57.75;27.40;;;-0.20;99.90;;;;;;5001170;28;95110;-78
2022/01/15 07:03:34;;;;;;;54.80;26.08;;;-0.20;99.90;;;;;;5000820;28;94822;-79
2022/01/15 07:06:00;;;;;;;64.95;26.77;;;-0.20;99.90;;;;;;5002349;28;95333;-78
2022/01/15 07:08:25;;;;;;;59.90;27.42;;;-0.20;99.90;;;;;;5001681;28;94428;-78
2022/01/15 07:10:51;;;;;;;57.78;25.63;;;-0.20;99.90;;;;;;5002231;28;98311;-79
2022/01/15 07:13:19;;;;;;;53.17;25.10;;;-0.20;99.90;;;;;;5001938;28;97908;-78
2022/01/15 07:15:48;;;;;;;60.25;27.08;;;-0.10;99.90;;;;;;5002925;28;94475;-78
2022/01/15 07:18:15;;;;;;;60.38;27.55;;;-0.10;99.90;;;;;;5002008;28;94519;-79
2022/01/15 07:20:43;;;;;;;54.53;27.08;;;-0.10;99.90;;;;;;5004301;28;95614;-79
2022/01/15 07:23:08;;;;;;;54.75;26.83;;;-0.10;99.90;;;;;;5005317;28;94260;-78
2022/01/15 07:25:34;;;;;;;59.45;27.27;;;-0.10;99.90;;;;;;4994903;28;94380;-79
2022/01/15 07:28:03;;;;;;;55.60;26.98;;;0.00;99.90;;;;;;4989378;28;94521;-77
2022/01/15 07:30:28;;;;;;;54.47;27.42;;;0.00;99.90;;;;;;4996220;28;95466;-77
2022/01/15 07:32:54;;;;;;;57.50;28.17;;;0.00;99.90;;;;;;4994553;28;94696;-77
2022/01/15 07:35:19;;;;;;;60.70;30.00;;;0.00;99.90;;;;;;4998361;28;94388;-78
2022/01/15 07:37:45;;;;;;;50.85;26.70;;;-0.10;99.90;;;;;;4999295;28;94506;-78
2022/01/15 07:40:11;;;;;;;54.97;28.95;;;0.00;99.90;;;;;;4998932;28;94507;-77
2022/01/15 07:42:40;;;;;;;56.97;28.98;;;0.00;99.90;;;;;;4997215;28;96706;-78
2022/01/15 07:45:09;;;;;;;55.28;26.83;;;0.00;99.90;;;;;;4999730;28;94552;-77
2022/01/15 07:47:35;;;;;;;58.05;28.85;;;0.10;99.90;;;;;;5001216;28;93848;-77
2022/01/15 07:50:01;;;;;;;57.33;28.33;;;0.10;99.90;;;;;;4987979;28;95356;-78
2022/01/15 07:52:29;;;;;;;49.85;26.95;;;0.10;99.90;;;;;;4985496;28;96594;-77
2022/01/15 07:54:58;;;;;;;55.03;28.23;;;0.10;99.90;;;;;;4982635;28;95418;-77
2022/01/15 07:57:24;;;;;;;58.40;28.25;;;0.20;99.90;;;;;;4980571;28;94842;-78
2022/01/15 07:59:50;;;;;;;63.45;28.40;;;0.20;99.90;;;;;;4977091;28;96899;-77
2022/01/15 08:02:16;;;;;;;57.92;28.45;;;0.30;99.90;;;;;;4977944;28;94982;-78
2022/01/15 08:04:45;;;;;;;53.08;27.50;;;0.30;99.90;;;;;;4976603;28;94379;-77
2022/01/15 08:07:11;;;;;;;57.75;28.80;;;0.30;99.90;;;;;;4975992;28;94520;-78
2022/01/15 08:09:37;;;;;;;57.33;29.02;;;0.30;99.90;;;;;;4977442;28;94887;-78
2022/01/15 08:12:03;;;;;;;56.50;29.88;;;0.40;99.90;;;;;;4977778;28;94580;-78
2022/01/15 08:14:29;;;;;;;60.38;28.90;;;0.40;99.90;;;;;;4978642;28;94382;-78
2022/01/15 08:16:55;;;;;;;56.95;28.60;;;0.40;99.90;;;;;;4975067;28;94837;-78
2022/01/15 08:19:21;;;;;;;59.30;29.15;;;0.40;99.90;;;;;;4976356;28;95317;-77
2022/01/15 08:21:50;;;;;;;63.17;29.90;;;0.50;99.90;;;;;;4975378;28;95215;-79
2022/01/15 08:24:16;;;;;;;50.25;28.63;;;0.50;99.90;;;;;;4976667;28;94451;-79
2022/01/15 08:26:41;;;;;;;52.55;27.23;;;0.50;99.90;;;;;;4980116;28;94431;-78
2022/01/15 08:29:12;;;;;;;50.50;27.48;;;0.50;99.90;;;;;;4977423;28;97433;-76
2022/01/15 08:31:40;;;;;;;58.53;28.33;;;0.60;99.90;;;;;;4978835;28;94768;-78
2022/01/15 08:34:06;;;;;;;54.17;28.23;;;0.60;99.90;;;;;;4976834;28;94482;-78
2022/01/15 08:36:32;;;;;;;59.45;29.15;;;0.70;99.90;;;;;;4978392;28;93780;-78
2022/01/15 08:38:58;;;;;;;54.13;27.77;;;0.70;99.90;;;;;;4979105;28;95836;-80
2022/01/15 08:41:24;;;;;;;52.95;28.48;;;0.70;99.90;;;;;;4980463;28;94873;-78
2022/01/15 08:43:51;;;;;;;52.95;27.95;;;0.70;99.90;;;;;;4986688;28;95329;-79
2022/01/15 08:46:18;;;;;;;53.33;27.08;;;0.80;99.90;;;;;;4999004;28;94356;-80
2022/01/15 08:48:44;;;;;;;51.85;26.70;;;0.80;99.90;;;;;;4988222;28;94375;-78
2022/01/15 08:51:13;;;;;;;52.03;26.48;;;0.80;99.90;;;;;;4981275;28;96894;-76
2022/01/15 08:53:38;;;;;;;55.15;26.95;;;0.90;99.90;;;;;;4981190;28;94432;-78
2022/01/15 08:56:04;;;;;;;48.88;26.75;;;1.00;99.90;;;;;;4978772;28;94528;-78
2022/01/15 08:58:30;;;;;;;51.22;27.13;;;1.10;99.90;;;;;;4978515;28;94559;-81
2022/01/15 09:00:57;;;;;;;49.75;26.10;;;1.20;99.90;;;;;;4977400;28;94079;-78
2022/01/15 09:03:24;;;;;;;51.05;27.13;;;1.20;99.90;;;;;;4977215;28;94415;-78
2022/01/15 09:05:50;;;;;;;50.70;25.95;;;1.30;99.90;;;;;;4980226;28;94588;-78
2022/01/15 09:08:17;;;;;;;54.08;27.08;;;1.20;99.90;;;;;;4961676;28;99302;-77
2022/01/15 09:10:43;;;;;;;49.25;26.23;;;1.20;99.90;;;;;;4979457;28;95935;-78
2022/01/15 09:13:12;;;;;;;52.58;27.17;;;1.30;99.90;;;;;;4978862;28;94588;-76
2022/01/15 09:15:40;;;;;;;53.95;27.77;;;1.40;99.90;;;;;;4982963;28;94291;-79
2022/01/15 09:18:06;;;;;;;53.33;27.25;;;1.50;99.90;;;;;;4979730;28;95755;-79
2022/01/15 09:20:31;;;;;;;49.53;27.75;;;1.70;99.90;;;;;;4979576;28;95020;-78
2022/01/15 09:22:57;;;;;;;50.72;26.85;;;1.70;99.90;;;;;;4980632;28;94493;-78
2022/01/15 09:25:23;;;;;;;47.60;25.17;;;1.80;99.90;;;;;;4982029;28;93644;-78
2022/01/15 09:30:33;;;;;;;41.22;23.48;;;1.80;99.90;;;;;;4982483;28;94592;-78
2022/01/15 09:32:59;;;;;;;46.20;23.73;;;1.80;99.90;;;;;;4980057;28;95442;-79
2022/01/15 09:35:30;;;;;;;49.38;25.48;;;1.80;99.90;;;;;;4980086;28;94427;-79
2022/01/15 09:37:56;;;;;;;47.35;25.08;;;1.80;99.90;;;;;;4974809;28;97268;-77
2022/01/15 09:40:25;;;;;;;47.13;25.75;;;1.90;99.90;;;;;;4982789;28;94468;-79
2022/01/15 09:42:52;;;;;;;46.80;25.25;;;1.80;99.90;;;;;;4988985;28;94402;-77
2022/01/15 09:45:35;;;;;;;46.35;25.45;;;1.70;99.90;;;;;;4987910;28;94344;-81
2022/01/15 09:48:03;;;;;;;47.03;25.20;;;1.80;99.90;;;;;;4978837;28;98065;-78
2022/01/15 09:50:31;;;;;;;50.55;26.38;;;1.80;99.90;;;;;;4979442;28;96270;-78
2022/01/15 09:52:57;;;;;;;45.63;24.95;;;2.00;99.90;;;;;;4979889;28;94576;-77
2022/01/15 09:55:24;;;;;;;48.08;26.25;;;2.10;99.90;;;;;;4979819;28;94421;-76
2022/01/15 09:57:50;;;;;;;48.22;25.77;;;2.20;99.90;;;;;;4977997;28;99549;-78
2022/01/15 10:00:21;;;;;;;44.25;25.60;;;2.30;99.90;;;;;;4980807;28;95144;-77
2022/01/15 10:02:49;;;;;;;43.05;24.98;;;2.30;99.90;;;;;;4979425;28;94313;-78
2022/01/15 10:05:16;;;;;;;43.60;24.63;;;2.40;99.90;;;;;;4977682;28;94534;-78
2022/01/15 10:08:01;;;;;;;47.13;27.13;;;2.40;99.90;;;;;;4976827;28;94728;-78
2022/01/15 10:10:29;;;;;;;46.30;25.65;;;2.50;99.90;;;;;;4985142;28;94458;-78
2022/01/15 10:12:55;;;;;;;43.38;24.77;;;2.30;99.90;;;;;;4986768;28;94344;-78
2022/01/15 10:15:21;;;;;;;42.17;24.67;;;2.40;99.90;;;;;;4987109;28;93444;-78
2022/01/15 10:17:48;;;;;;;41.85;24.05;;;2.50;99.90;;;;;;4976677;28;95546;-77
2022/01/15 10:20:18;;;;;;;43.20;25.02;;;2.50;99.90;;;;;;4974967;28;94781;-77
2022/01/15 10:22:50;;;;;;;43.65;25.02;;;2.60;99.90;;;;;;4973162;28;95414;-77
2022/01/15 10:25:20;;;;;;;43.17;24.95;;;2.80;99.90;;;;;;4975629;28;94363;-77
2022/01/15 10:27:47;;;;;;;45.72;25.50;;;2.80;99.90;;;;;;4973595;28;97961;-77
2022/01/15 10:30:20;;;;;;;41.00;23.85;;;2.90;99.90;;;;;;4979951;28;95085;-79
2022/01/15 10:33:08;;;;;;;43.47;24.70;;;3.10;99.90;;;;;;4967992;28;94449;-78
2022/01/15 10:35:42;;;;;;;48.97;25.15;;;3.30;99.90;;;;;;4982386;28;94461;-78
2022/01/15 10:38:10;;;;;;;44.38;24.20;;;3.20;99.90;;;;;;4975177;28;94689;-77
2022/01/15 10:40:39;;;;;;;43.60;24.35;;;3.20;99.90;;;;;;4974757;28;96651;-79
2022/01/15 10:43:04;;;;;;;43.55;25.08;;;3.20;99.90;;;;;;4975389;28;94349;-79
2022/01/15 10:45:34;;;;;;;43.55;24.38;;;3.30;99.90;;;;;;4976068;28;94485;-78
2022/01/15 10:48:02;;;;;;;42.30;24.67;;;3.40;99.90;;;;;;4976436;28;96045;-78
2022/01/15 10:50:29;;;;;;;44.75;24.80;;;3.40;99.90;;;;;;4975308;28;98515;-79
2022/01/15 10:52:56;;;;;;;45.72;25.35;;;3.40;99.90;;;;;;4975122;28;94367;-79
2022/01/15 10:55:30;;;;;;;43.58;23.90;;;3.40;99.90;;;;;;4976178;28;94427;-80
2022/01/15 10:57:56;;;;;;;41.13;24.17;;;3.40;99.90;;;;;;4979625;28;94391;-79
2022/01/15 11:00:36;;;;;;;43.28;25.13;;;3.50;99.90;;;;;;4975723;28;95250;-77
2022/01/15 11:03:07;;;;;;;46.42;24.77;;;3.40;99.90;;;;;;4975584;28;94460;-78
2022/01/15 11:05:36;;;;;;;42.65;23.65;;;3.40;99.90;;;;;;4976031;28;93733;-77
2022/01/15 11:08:20;;;;;;;44.60;26.10;;;3.40;99.90;;;;;;4975754;28;94647;-78
2022/01/15 11:10:55;;;;;;;41.90;24.10;;;3.40;99.90;;;;;;4977013;28;94807;-78
2022/01/15 11:13:25;;;;;;;39.78;23.13;;;3.50;99.90;;;;;;4995612;22;95532;-76
2022/01/15 11:15:54;;;;;;;39.97;23.20;;;3.50;99.90;;;;;;4993953;28;94439;-74
2022/01/15 11:18:23;;;;;;;42.40;23.85;;;3.60;99.90;;;;;;4993167;28;94488;-74
2022/01/15 11:20:52;;;;;;;39.55;22.00;;;3.60;99.90;;;;;;4993675;28;94355;-74
2022/01/15 11:23:20;;;;;;;36.33;21.63;;;3.50;99.90;;;;;;4991789;28;94511;-74
2022/01/15 11:25:47;;;;;;;34.67;21.52;;;3.50;99.90;;;;;;4993589;28;94317;-74
2022/01/15 11:28:13;;;;;;;37.67;21.73;;;3.50;99.90;;;;;;4992079;28;97179;-76
2022/01/15 11:30:40;;;;;;;35.30;20.48;;;3.60;99.90;;;;;;4993796;28;95247;-75
2022/01/15 11:33:07;;;;;;;33.72;20.90;;;3.60;99.90;;;;;;4993646;28;94589;-74
2022/01/15 11:35:47;;;;;;;34.28;19.70;;;3.60;99.90;;;;;;4993257;28;94798;-74
2022/01/15 11:38:40;;;;;;;34.05;20.80;;;3.50;99.90;;;;;;4992970;28;96584;-74
2022/01/15 11:41:27;;;;;;;35.05;21.02;;;3.50;99.90;;;;;;4989947;28;95127;-74
2022/01/15 11:44:00;;;;;;;32.95;18.88;;;3.50;99.90;;;;;;4993376;28;94418;-74
2022/01/15 11:46:31;;;;;;;32.60;19.85;;;3.30;99.90;;;;;;4993435;28;94456;-74
2022/01/15 11:49:34;;;;;;;36.72;20.30;;;3.30;99.90;;;;;;4991891;28;97280;-74
2022/01/15 11:52:06;;;;;;;32.80;19.30;;;3.20;99.90;;;;;;4996308;28;94425;-74
2022/01/15 11:54:32;;;;;;;32.28;19.80;;;3.10;99.90;;;;;;4997051;28;94400;-74
2022/01/15 11:57:00;;;;;;;33.35;20.30;;;3.10;99.90;;;;;;4999406;28;93982;-74
2022/01/15 11:59:26;;;;;;;33.38;20.95;;;3.10;99.90;;;;;;4995043;28;98578;-76
2022/01/15 12:02:04;;;;;;;39.35;21.60;;;3.10;99.90;;;;;;4996351;28;94489;-76
2022/01/15 12:04:39;;;;;;;35.55;19.48;;;3.20;99.90;;;;;;4994800;28;95531;-74
2022/01/15 12:07:05;;;;;;;32.47;19.95;;;3.20;99.90;;;;;;4996485;28;94787;-74
2022/01/15 12:09:38;;;;;;;41.97;24.20;;;3.20;99.90;;;;;;4996839;28;95575;-74
2022/01/15 12:12:19;;;;;;;35.90;20.13;;;3.30;99.90;;;;;;4996189;28;95061;-74
2022/01/15 12:14:59;;;;;;;35.42;19.40;;;3.30;99.90;;;;;;4996415;28;94771;-74
2022/01/15 12:17:34;;;;;;;32.50;19.10;;;3.40;99.90;;;;;;4996748;28;94540;-74
2022/01/15 12:20:05;;;;;;;29.83;18.17;;;3.40;99.90;;;;;;4996039;28;95512;-74
2022/01/15 12:22:39;;;;;;;31.95;19.50;;;3.50;99.90;;;;;;4996113;28;93768;-74
2022/01/15 12:25:07;;;;;;;28.52;17.73;;;3.50;99.90;;;;;;4996193;28;94343;-74
2022/01/15 12:27:34;;;;;;;26.77;16.50;;;3.40;99.90;;;;;;4996366;28;94421;-74
2022/01/15 12:30:10;;;;;;;30.63;17.70;;;3.40;99.90;;;;;;4995768;28;95429;-74
2022/01/15 12:32:39;;;;;;;28.05;17.17;;;3.40;99.90;;;;;;4994092;28;98627;-74
2022/01/15 12:35:13;;;;;;;30.83;17.52;;;3.40;99.90;;;;;;4996252;28;94387;-74
2022/01/15 12:38:07;;;;;;;30.10;17.23;;;3.40;99.90;;;;;;4994506;28;94477;-74
2022/01/15 12:40:42;;;;;;;29.58;17.70;;;3.50;99.90;;;;;;4994649;28;97865;-74
2022/01/15 12:43:20;;;;;;;28.08;17.30;;;3.60;99.90;;;;;;4995264;28;95383;-74
2022/01/15 12:45:48;;;;;;;28.48;17.00;;;3.70;99.90;;;;;;4996232;28;94410;-74
2022/01/15 12:48:15;;;;;;;27.85;17.40;;;3.70;99.90;;;;;;4996180;28;93725;-75
2022/01/15 12:50:50;;;;;;;26.52;16.80;;;3.60;99.90;;;;;;4995933;28;94491;-74
2022/01/15 12:53:18;;;;;;;25.48;15.98;;;3.60;99.90;;;;;;4995370;28;95312;-74
2022/01/15 12:55:44;;;;;;;28.45;16.48;;;3.50;99.90;;;;;;4995634;28;95284;-74
2022/01/15 12:58:13;;;;;;;24.65;15.65;;;3.50;99.90;;;;;;4995490;28;94583;-74
2022/01/15 13:00:39;;;;;;;23.98;15.48;;;3.50;99.90;;;;;;4994188;28;97836;-74
2022/01/15 13:03:10;;;;;;;27.10;15.05;;;3.50;99.90;;;;;;4992951;28;97741;-74
2022/01/15 13:05:44;;;;;;;24.70;15.55;;;3.40;99.90;;;;;;4995940;28;94536;-74
2022/01/15 13:08:24;;;;;;;24.50;14.60;;;3.40;99.90;;;;;;4995847;28;94464;-74
2022/01/15 13:10:54;;;;;;;23.58;14.50;;;3.40;99.90;;;;;;4994015;28;98131;-74
2022/01/15 13:13:35;;;;;;;26.60;16.15;;;3.50;99.90;;;;;;4995151;28;96426;-74
2022/01/15 13:16:32;;;;;;;25.10;15.05;;;3.40;99.90;;;;;;4996021;28;94330;-74
2022/01/15 13:19:02;;;;;;;24.13;15.15;;;3.20;99.90;;;;;;4979589;28;94466;-74
2022/01/15 13:21:36;;;;;;;24.23;13.77;;;3.10;99.90;;;;;;4987231;28;98670;-75
2022/01/15 13:24:10;;;;;;;23.30;14.15;;;3.10;99.90;;;;;;4981697;28;94482;-75
2022/01/15 13:26:42;;;;;;;21.08;13.32;;;3.10;99.90;;;;;;4994521;28;94505;-76
2022/01/15 13:29:11;;;;;;;22.08;13.93;;;3.20;99.90;;;;;;4994267;28;94482;-75
2022/01/15 13:31:39;;;;;;;22.23;13.05;;;3.20;99.90;;;;;;4993747;28;96947;-75
2022/01/15 13:34:14;;;;;;;22.35;13.68;;;3.10;99.90;;;;;;4994928;28;93990;-75
2022/01/15 13:36:42;;;;;;;22.35;13.02;;;3.00;99.90;;;;;;4999129;28;94890;-79
2022/01/15 13:39:08;;;;;;;20.27;12.63;;;2.90;99.90;;;;;;4998873;28;93657;-76
2022/01/15 13:41:36;;;;;;;21.48;13.38;;;2.90;99.90;;;;;;5002301;28;96914;-79
2022/01/15 13:44:14;;;;;;;21.00;12.63;;;3.00;99.90;;;;;;4998029;28;95095;-79
2022/01/15 13:46:45;;;;;;;19.90;13.25;;;3.10;99.90;;;;;;4995474;28;95531;-76
2022/01/15 13:49:16;;;;;;;20.70;12.88;;;3.10;99.90;;;;;;4990386;28;94545;-78
2022/01/15 13:54:30;;;;;;;20.48;12.32;;;3.30;99.90;;;;;;4977988;28;95121;-80
2022/01/15 13:57:05;;;;;;;19.75;12.57;;;3.20;99.90;;;;;;4974816;28;94495;-75
2022/01/15 13:59:31;;;;;;;18.75;11.40;;;3.20;99.90;;;;;;4975094;28;94478;-75
2022/01/15 14:01:59;;;;;;;20.27;11.75;;;3.30;99.90;;;;;;4973537;28;97958;-76
2022/01/15 14:04:32;;;;;;;19.75;12.18;;;3.20;99.90;;;;;;4973769;28;97699;-75
2022/01/15 14:07:03;;;;;;;19.58;12.18;;;3.10;99.90;;;;;;4977864;28;94438;-79
2022/01/15 14:09:30;;;;;;;23.50;13.25;;;3.10;99.90;;;;;;4995272;28;95403;-77
2022/01/15 14:11:58;;;;;;;20.45;12.18;;;3.10;99.90;;;;;;4995750;28;96219;-76
2022/01/15 14:14:24;;;;;;;19.25;11.60;;;3.10;99.90;;;;;;4993487;28;94708;-76
2022/01/15 14:16:58;;;;;;;19.13;11.70;;;3.10;99.90;;;;;;4995777;28;94426;-78
2022/01/15 14:22:29;;;;;;;19.98;11.05;;;3.20;99.90;;;;;;4990574;28;95127;-75
2022/01/15 14:25:12;;;;;;;18.55;11.13;;;3.10;99.90;;;;;;4994717;28;94574;-76
2022/01/15 14:27:38;;;;;;;42.33;28.95;;;3.00;99.90;;;;;;4981582;28;94451;-76
2022/01/15 14:30:05;;;;;;;25.10;16.55;;;2.90;99.90;;;;;;4974198;28;93689;-76
2022/01/15 14:32:31;;;;;;;22.50;14.38;;;2.90;99.90;;;;;;4993093;28;95207;-76
2022/01/15 14:34:57;;;;;;;21.35;13.50;;;2.90;99.90;;;;;;4994820;28;95548;-77
2022/01/15 14:37:25;;;;;;;24.17;18.83;;;2.90;99.90;;;;;;4987025;28;95476;-77
2022/01/15 14:39:54;;;;;;;23.48;17.88;;;2.90;99.90;;;;;;5001798;28;94554;-77
2022/01/15 14:42:21;;;;;;;19.58;13.55;;;2.80;99.90;;;;;;4974704;28;94435;-76
2022/01/15 14:44:46;;;;;;;29.55;21.27;;;2.70;99.90;;;;;;4974584;28;96016;-77
2022/01/15 14:47:12;;;;;;;21.95;14.32;;;2.70;99.90;;;;;;4973435;28;94423;-76
2022/01/15 14:49:39;;;;;;;22.02;13.30;;;2.60;99.90;;;;;;4974495;28;94555;-76
2022/01/15 14:52:05;;;;;;;21.15;12.15;;;2.60;99.90;;;;;;4974273;28;94451;-76
2022/01/15 14:54:30;;;;;;;21.33;12.05;;;2.60;99.90;;;;;;4975081;28;94777;-76
2022/01/15 14:56:56;;;;;;;20.58;12.38;;;2.70;99.90;;;;;;4977773;28;94493;-79
2022/01/15 14:59:22;;;;;;;21.40;12.10;;;2.70;99.90;;;;;;4988796;28;94417;-80
2022/01/15 15:01:47;;;;;;;19.38;12.00;;;2.70;99.90;;;;;;4980427;28;97548;-79
2022/01/15 15:04:13;;;;;;;20.98;12.18;;;2.70;99.90;;;;;;4977298;28;98241;-79
2022/01/15 15:06:39;;;;;;;18.80;11.40;;;2.70;99.90;;;;;;4982385;28;94324;-77
2022/01/15 15:09:06;;;;;;;19.05;12.05;;;2.70;99.90;;;;;;4987265;28;94415;-77
2022/01/15 15:11:33;;;;;;;27.52;13.90;;;2.60;99.90;;;;;;4994884;28;95664;-77
2022/01/15 15:13:59;;;;;;;19.42;11.77;;;2.60;99.90;;;;;;4991912;28;98000;-76
2022/01/15 15:16:24;;;;;;;21.67;12.48;;;2.50;99.90;;;;;;4992855;28;94437;-76
2022/01/15 15:18:50;;;;;;;22.13;12.73;;;2.50;99.90;;;;;;4998320;28;94081;-77
2022/01/15 15:21:17;;;;;;;21.77;12.73;;;2.40;99.90;;;;;;4992565;28;97809;-76
2022/01/15 15:23:43;;;;;;;21.58;12.23;;;2.40;99.90;;;;;;4991852;28;97167;-76
2022/01/15 15:26:08;;;;;;;19.15;12.18;;;2.40;99.90;;;;;;4994719;28;95519;-77
2022/01/15 15:28:34;;;;;;;24.27;13.63;;;2.40;99.90;;;;;;4998090;28;94605;-77
2022/01/15 15:31:08;;;;;;;20.98;12.73;;;2.30;99.90;;;;;;4995782;28;97764;-77
2022/01/15 15:33:35;;;;;;;23.10;12.68;;;2.30;99.90;;;;;;4995302;28;96790;-79
2022/01/15 15:36:01;;;;;;;25.95;14.07;;;2.30;99.90;;;;;;4984022;28;94361;-79
2022/01/15 15:38:26;;;;;;;23.58;13.88;;;2.30;99.90;;;;;;4978146;28;94425;-77
2022/01/15 15:40:53;;;;;;;21.77;13.18;;;2.30;99.90;;;;;;4980198;28;95255;-77
2022/01/15 15:43:18;;;;;;;25.48;13.25;;;2.30;99.90;;;;;;4978090;28;94158;-77
2022/01/15 15:45:46;;;;;;;23.45;13.20;;;2.30;99.90;;;;;;4977373;28;94414;-76
2022/01/15 15:48:12;;;;;;;20.52;12.75;;;2.20;99.90;;;;;;4977184;28;94478;-77
2022/01/15 15:50:37;;;;;;;23.27;13.57;;;2.20;99.90;;;;;;4976864;28;96666;-76
2022/01/15 15:53:03;;;;;;;21.73;13.45;;;2.20;99.90;;;;;;4975381;28;98109;-77
2022/01/15 15:55:29;;;;;;;20.83;12.75;;;2.20;99.90;;;;;;4978348;28;94423;-78
2022/01/15 15:57:54;;;;;;;23.60;13.68;;;2.10;99.90;;;;;;4981787;28;94456;-79
2022/01/15 16:00:22;;;;;;;23.05;14.13;;;2.10;99.90;;;;;;4979004;28;97150;-79
2022/01/15 16:02:49;;;;;;;25.05;14.20;;;2.10;99.90;;;;;;4978588;28;97000;-79
2022/01/15 16:05:15;;;;;;;24.85;15.25;;;2.10;99.90;;;;;;4980069;28;94398;-78
2022/01/15 16:07:43;;;;;;;24.95;14.70;;;2.10;99.90;;;;;;4977975;28;94386;-79
2022/01/15 16:10:09;;;;;;;27.95;15.27;;;2.10;99.90;;;;;;4976263;28;95656;-77
2022/01/15 16:12:35;;;;;;;33.00;17.75;;;2.10;99.90;;;;;;4976143;28;94538;-76
2022/01/15 16:15:01;;;;;;;27.83;16.00;;;2.00;99.90;;;;;;4976098;28;95654;-77
2022/01/15 16:17:28;;;;;;;34.78;19.15;;;2.10;99.90;;;;;;4976175;28;94542;-76
2022/01/15 16:19:54;;;;;;;29.63;17.77;;;2.00;99.90;;;;;;4993342;28;96933;-76
2022/01/15 16:22:20;;;;;;;31.88;18.27;;;2.00;99.90;;;;;;4996079;28;95325;-76
2022/01/15 16:24:46;;;;;;;29.33;16.80;;;2.00;99.90;;;;;;4982662;28;94668;-77
2022/01/15 16:27:12;;;;;;;28.10;15.93;;;2.00;99.90;;;;;;4975377;28;94579;-76
2022/01/15 16:29:39;;;;;;;28.83;17.63;;;2.00;99.90;;;;;;4974881;28;98940;-76
2022/01/15 16:32:06;;;;;;;29.13;16.13;;;2.00;99.90;;;;;;4976592;28;94846;-76
2022/01/15 16:34:31;;;;;;;29.67;16.60;;;2.00;99.90;;;;;;4976283;28;94343;-76
2022/01/15 16:36:58;;;;;;;26.40;16.42;;;2.00;99.90;;;;;;4974136;28;94537;-76
2022/01/15 16:39:25;;;;;;;27.83;16.23;;;2.00;99.90;;;;;;4976013;28;96557;-77
2022/01/15 16:41:52;;;;;;;26.10;14.73;;;2.00;99.90;;;;;;4976054;28;96275;-76
2022/01/15 16:44:17;;;;;;;26.58;15.90;;;2.00;99.90;;;;;;4975524;28;94499;-77
2022/01/15 16:46:47;;;;;;;27.92;15.82;;;2.00;99.90;;;;;;4977764;28;94501;-76
2022/01/15 16:49:13;;;;;;;28.50;15.90;;;1.90;99.90;;;;;;4977302;28;94391;-79
2022/01/15 16:51:39;;;;;;;25.92;15.70;;;1.90;99.90;;;;;;4976698;28;95143;-76
2022/01/15 16:54:04;;;;;;;26.92;16.08;;;1.90;99.90;;;;;;4974423;28;95271;-75
2022/01/15 16:56:30;;;;;;;34.00;18.77;;;1.90;99.90;;;;;;4974893;28;93670;-75
2022/01/15 16:58:56;;;;;;;33.13;19.20;;;1.90;99.90;;;;;;4993389;28;98048;-77
2022/01/15 17:01:22;;;;;;;32.92;18.27;;;1.90;99.90;;;;;;4992844;28;97083;-74
2022/01/15 17:03:48;;;;;;;31.02;18.23;;;1.90;99.90;;;;;;4993688;28;95609;-75
2022/01/15 17:06:13;;;;;;;30.80;17.42;;;1.90;99.90;;;;;;4994851;28;94812;-74
2022/01/15 17:08:39;;;;;;;27.45;17.00;;;1.90;99.90;;;;;;4995917;28;94413;-73
2022/01/15 17:11:06;;;;;;;31.30;18.08;;;1.90;99.90;;;;;;4994147;28;96533;-74
2022/01/15 17:13:32;;;;;;;30.67;17.60;;;1.90;99.90;;;;;;4992047;28;94341;-74
2022/01/15 17:15:58;;;;;;;34.45;18.77;;;1.90;99.90;;;;;;4990156;28;94637;-74
2022/01/15 17:18:24;;;;;;;35.65;19.02;;;1.90;99.90;;;;;;4995633;28;94531;-73
2022/01/15 17:20:50;;;;;;;37.88;20.27;;;1.90;99.90;;;;;;4995454;28;93904;-74